aviador You're here:

KMSS Decoded Metar

MASSENA in NY, USA
Report Time2017-03-25 16:53:00
UTC Time2017-03-25 17:22:44
Flight Rules mvfr MVFR
Wind030° at 11 kt
W.Decomp.*RWY 05: 10.9 kt HW 1.1 kt LCW
RWY 09: 7.6 kt HW 7.9 kt LCW
W.Rank030° ranks 18
Current wind is above 030° avg. (6.8)
Visibility9999 m
Phenomena:N/A
Clouds:Overcast 018 Hf
Expected CloudBase > 1,600 ft AGL from Temp-Dew spread
Ceiling1,800 ft
Temp02°C (ISA -13)
Dew Point-2°C (75% RH)
AAT-4.2°C
QNH1029 hPa
Density Alt-1,781 ft
Elevation217 ft
Report Wrong Elevation
Raw Report
KMSS 251653Z AUTO 03011KT 10SM OVC018 02/M02 A3038=

Extra information for KMSS:More info

Metar Taf Metar & Taf Last 4 Metars F.Rules Stats Wind Profile Meteogram Temp Stats Airport Information Weather charts Add Link Nearby VenuesMetar ALERT Operation Metar Decoded Social comments

AIRNAV info for KMSS